sensor_id;sensor_type;location;lat;lon;timestamp;P1;durP1;ratioP1;P2;durP2;ratioP2
12135;SDS011;6131;56.420;15.548;2024-01-07T00:02:19;6.83;;;1.23;;
12135;SDS011;6131;56.420;15.548;2024-01-07T00:04:45;3.87;;;2.00;;
12135;SDS011;6131;56.420;15.548;2024-01-07T00:07:11;3.60;;;1.60;;
12135;SDS011;6131;56.420;15.548;2024-01-07T00:09:37;2.93;;;1.43;;
12135;SDS011;6131;56.420;15.548;2024-01-07T00:12:03;2.07;;;1.50;;
12135;SDS011;6131;56.420;15.548;2024-01-07T00:14:29;1.83;;;1.30;;
12135;SDS011;6131;56.420;15.548;2024-01-07T00:16:55;2.87;;;1.40;;
12135;SDS011;6131;56.420;15.548;2024-01-07T00:19:21;1.33;;;1.10;;
12135;SDS011;6131;56.420;15.548;2024-01-07T00:21:47;1.63;;;1.27;;
12135;SDS011;6131;56.420;15.548;2024-01-07T00:24:14;1.63;;;1.37;;
12135;SDS011;6131;56.420;15.548;2024-01-07T00:26:40;1.43;;;1.10;;
12135;SDS011;6131;56.420;15.548;2024-01-07T00:29:06;2.73;;;1.30;;
12135;SDS011;6131;56.420;15.548;2024-01-07T00:31:32;2.50;;;1.40;;
12135;SDS011;6131;56.420;15.548;2024-01-07T00:33:58;1.80;;;1.27;;
12135;SDS011;6131;56.420;15.548;2024-01-07T00:36:24;2.40;;;1.50;;
12135;SDS011;6131;56.420;15.548;2024-01-07T00:38:50;2.50;;;1.27;;
12135;SDS011;6131;56.420;15.548;2024-01-07T00:41:16;2.17;;;1.57;;
12135;SDS011;6131;56.420;15.548;2024-01-07T00:43:42;3.87;;;1.57;;
12135;SDS011;6131;56.420;15.548;2024-01-07T00:46:08;2.07;;;1.40;;
12135;SDS011;6131;56.420;15.548;2024-01-07T00:48:34;1.47;;;1.17;;
12135;SDS011;6131;56.420;15.548;2024-01-07T00:51:00;2.57;;;1.60;;
12135;SDS011;6131;56.420;15.548;2024-01-07T00:53:26;2.13;;;1.50;;
12135;SDS011;6131;56.420;15.548;2024-01-07T00:55:52;1.57;;;1.27;;
12135;SDS011;6131;56.420;15.548;2024-01-07T00:58:18;1.50;;;1.13;;
12135;SDS011;6131;56.420;15.548;2024-01-07T01:00:44;2.10;;;1.30;;
12135;SDS011;6131;56.420;15.548;2024-01-07T01:03:10;1.67;;;1.30;;
12135;SDS011;6131;56.420;15.548;2024-01-07T01:05:36;1.70;;;1.20;;
12135;SDS011;6131;56.420;15.548;2024-01-07T01:08:02;1.97;;;1.33;;
12135;SDS011;6131;56.420;15.548;2024-01-07T01:10:28;1.80;;;1.10;;
12135;SDS011;6131;56.420;15.548;2024-01-07T01:12:54;1.60;;;1.33;;
12135;SDS011;6131;56.420;15.548;2024-01-07T01:15:20;2.70;;;1.40;;
12135;SDS011;6131;56.420;15.548;2024-01-07T01:17:46;1.80;;;1.40;;
12135;SDS011;6131;56.420;15.548;2024-01-07T01:20:12;1.43;;;1.00;;
12135;SDS011;6131;56.420;15.548;2024-01-07T01:22:38;1.73;;;1.10;;
12135;SDS011;6131;56.420;15.548;2024-01-07T01:25:04;3.50;;;1.57;;
12135;SDS011;6131;56.420;15.548;2024-01-07T01:27:30;2.37;;;1.53;;
12135;SDS011;6131;56.420;15.548;2024-01-07T01:29:56;2.33;;;1.50;;
12135;SDS011;6131;56.420;15.548;2024-01-07T01:32:22;1.90;;;1.23;;
12135;SDS011;6131;56.420;15.548;2024-01-07T01:34:48;1.73;;;1.10;;
12135;SDS011;6131;56.420;15.548;2024-01-07T01:37:14;2.70;;;1.60;;
12135;SDS011;6131;56.420;15.548;2024-01-07T01:39:40;1.30;;;1.00;;
12135;SDS011;6131;56.420;15.548;2024-01-07T01:42:06;4.50;;;1.30;;
12135;SDS011;6131;56.420;15.548;2024-01-07T01:44:33;2.13;;;1.33;;
12135;SDS011;6131;56.420;15.548;2024-01-07T01:46:59;1.70;;;1.40;;
12135;SDS011;6131;56.420;15.548;2024-01-07T01:49:25;1.53;;;1.40;;
12135;SDS011;6131;56.420;15.548;2024-01-07T01:51:51;1.60;;;1.20;;
12135;SDS011;6131;56.420;15.548;2024-01-07T01:54:20;1.73;;;1.30;;
12135;SDS011;6131;56.420;15.548;2024-01-07T01:56:47;1.77;;;1.37;;
12135;SDS011;6131;56.420;15.548;2024-01-07T01:59:14;1.73;;;1.30;;
12135;SDS011;6131;56.420;15.548;2024-01-07T02:01:42;2.63;;;1.50;;
12135;SDS011;6131;56.420;15.548;2024-01-07T02:04:08;3.07;;;1.30;;
12135;SDS011;6131;56.420;15.548;2024-01-07T02:06:35;1.80;;;1.50;;
12135;SDS011;6131;56.420;15.548;2024-01-07T02:09:01;2.73;;;1.83;;
12135;SDS011;6131;56.420;15.548;2024-01-07T02:11:27;1.90;;;1.30;;
12135;SDS011;6131;56.420;15.548;2024-01-07T02:13:53;2.43;;;1.50;;
12135;SDS011;6131;56.420;15.548;2024-01-07T02:16:19;2.27;;;1.50;;
12135;SDS011;6131;56.420;15.548;2024-01-07T02:18:45;1.70;;;1.30;;
12135;SDS011;6131;56.420;15.548;2024-01-07T02:21:14;3.17;;;1.40;;
12135;SDS011;6131;56.420;15.548;2024-01-07T02:23:40;1.37;;;1.27;;
12135;SDS011;6131;56.420;15.548;2024-01-07T02:26:07;2.10;;;1.40;;
12135;SDS011;6131;56.420;15.548;2024-01-07T02:28:33;2.20;;;1.40;;
12135;SDS011;6131;56.420;15.548;2024-01-07T02:30:59;2.27;;;1.50;;
12135;SDS011;6131;56.420;15.548;2024-01-07T02:33:25;2.30;;;1.47;;
12135;SDS011;6131;56.420;15.548;2024-01-07T02:35:51;1.90;;;1.30;;
12135;SDS011;6131;56.420;15.548;2024-01-07T02:38:17;3.77;;;1.50;;
12135;SDS011;6131;56.420;15.548;2024-01-07T02:40:43;1.97;;;1.33;;
12135;SDS011;6131;56.420;15.548;2024-01-07T02:43:09;3.00;;;1.50;;
12135;SDS011;6131;56.420;15.548;2024-01-07T02:45:35;2.13;;;1.47;;
12135;SDS011;6131;56.420;15.548;2024-01-07T02:48:01;1.80;;;1.53;;
12135;SDS011;6131;56.420;15.548;2024-01-07T02:50:27;1.40;;;1.20;;
12135;SDS011;6131;56.420;15.548;2024-01-07T02:52:53;2.13;;;1.67;;
12135;SDS011;6131;56.420;15.548;2024-01-07T02:55:20;2.53;;;1.60;;
12135;SDS011;6131;56.420;15.548;2024-01-07T02:57:46;2.73;;;1.73;;
12135;SDS011;6131;56.420;15.548;2024-01-07T03:00:12;1.30;;;1.20;;
12135;SDS011;6131;56.420;15.548;2024-01-07T03:02:38;2.77;;;1.80;;
12135;SDS011;6131;56.420;15.548;2024-01-07T03:05:04;2.63;;;1.87;;
12135;SDS011;6131;56.420;15.548;2024-01-07T03:07:30;2.63;;;1.80;;
12135;SDS011;6131;56.420;15.548;2024-01-07T03:09:56;3.07;;;1.90;;
12135;SDS011;6131;56.420;15.548;2024-01-07T03:12:23;2.10;;;1.50;;
12135;SDS011;6131;56.420;15.548;2024-01-07T03:14:51;2.73;;;1.87;;
12135;SDS011;6131;56.420;15.548;2024-01-07T03:17:17;2.97;;;1.60;;
12135;SDS011;6131;56.420;15.548;2024-01-07T03:19:43;2.27;;;1.87;;
12135;SDS011;6131;56.420;15.548;2024-01-07T03:22:09;2.77;;;1.60;;
12135;SDS011;6131;56.420;15.548;2024-01-07T03:24:36;2.33;;;1.87;;
12135;SDS011;6131;56.420;15.548;2024-01-07T03:27:02;3.30;;;2.00;;
12135;SDS011;6131;56.420;15.548;2024-01-07T03:29:28;3.03;;;1.93;;
12135;SDS011;6131;56.420;15.548;2024-01-07T03:31:54;3.03;;;2.10;;
12135;SDS011;6131;56.420;15.548;2024-01-07T03:34:20;4.17;;;2.07;;
12135;SDS011;6131;56.420;15.548;2024-01-07T03:36:46;3.67;;;2.30;;
12135;SDS011;6131;56.420;15.548;2024-01-07T03:39:12;4.37;;;2.57;;
12135;SDS011;6131;56.420;15.548;2024-01-07T03:41:38;3.93;;;2.70;;
12135;SDS011;6131;56.420;15.548;2024-01-07T03:44:04;3.13;;;2.27;;
12135;SDS011;6131;56.420;15.548;2024-01-07T03:46:30;4.70;;;2.60;;
12135;SDS011;6131;56.420;15.548;2024-01-07T03:48:56;5.00;;;2.67;;
12135;SDS011;6131;56.420;15.548;2024-01-07T03:51:22;5.07;;;2.57;;
12135;SDS011;6131;56.420;15.548;2024-01-07T03:53:48;4.73;;;2.73;;
12135;SDS011;6131;56.420;15.548;2024-01-07T03:56:14;3.53;;;2.67;;
12135;SDS011;6131;56.420;15.548;2024-01-07T03:58:40;3.37;;;2.17;;
12135;SDS011;6131;56.420;15.548;2024-01-07T04:01:06;4.37;;;2.33;;
12135;SDS011;6131;56.420;15.548;2024-01-07T04:03:32;3.60;;;2.40;;
12135;SDS011;6131;56.420;15.548;2024-01-07T04:05:58;3.27;;;2.00;;
12135;SDS011;6131;56.420;15.548;2024-01-07T04:08:24;4.60;;;2.63;;
12135;SDS011;6131;56.420;15.548;2024-01-07T04:10:50;4.00;;;2.40;;
12135;SDS011;6131;56.420;15.548;2024-01-07T04:13:16;4.60;;;2.53;;
12135;SDS011;6131;56.420;15.548;2024-01-07T04:15:42;3.47;;;2.40;;
12135;SDS011;6131;56.420;15.548;2024-01-07T04:18:08;2.73;;;2.00;;
12135;SDS011;6131;56.420;15.548;2024-01-07T04:20:34;3.53;;;2.30;;
12135;SDS011;6131;56.420;15.548;2024-01-07T04:23:00;2.63;;;2.00;;
12135;SDS011;6131;56.420;15.548;2024-01-07T04:25:26;4.87;;;2.23;;
12135;SDS011;6131;56.420;15.548;2024-01-07T04:27:52;3.37;;;2.10;;
12135;SDS011;6131;56.420;15.548;2024-01-07T04:30:18;4.23;;;2.13;;
12135;SDS011;6131;56.420;15.548;2024-01-07T04:32:44;3.13;;;1.70;;
12135;SDS011;6131;56.420;15.548;2024-01-07T04:35:10;3.47;;;2.20;;
12135;SDS011;6131;56.420;15.548;2024-01-07T04:37:36;3.07;;;2.20;;
12135;SDS011;6131;56.420;15.548;2024-01-07T04:40:03;5.77;;;2.33;;
12135;SDS011;6131;56.420;15.548;2024-01-07T04:42:29;6.30;;;2.33;;
12135;SDS011;6131;56.420;15.548;2024-01-07T04:44:55;3.10;;;2.13;;
12135;SDS011;6131;56.420;15.548;2024-01-07T04:49:54;2.47;;;2.00;;
12135;SDS011;6131;56.420;15.548;2024-01-07T04:52:20;3.47;;;2.20;;
12135;SDS011;6131;56.420;15.548;2024-01-07T04:54:46;4.03;;;1.77;;
12135;SDS011;6131;56.420;15.548;2024-01-07T04:57:13;5.13;;;2.30;;
12135;SDS011;6131;56.420;15.548;2024-01-07T04:59:39;3.13;;;2.10;;
12135;SDS011;6131;56.420;15.548;2024-01-07T05:02:05;3.03;;;1.90;;
12135;SDS011;6131;56.420;15.548;2024-01-07T05:04:31;4.23;;;2.23;;
12135;SDS011;6131;56.420;15.548;2024-01-07T05:06:57;3.67;;;2.17;;
12135;SDS011;6131;56.420;15.548;2024-01-07T05:09:23;4.13;;;2.50;;
12135;SDS011;6131;56.420;15.548;2024-01-07T05:11:49;3.17;;;2.17;;
12135;SDS011;6131;56.420;15.548;2024-01-07T05:14:15;3.57;;;2.40;;
12135;SDS011;6131;56.420;15.548;2024-01-07T05:16:41;2.93;;;2.20;;
12135;SDS011;6131;56.420;15.548;2024-01-07T05:19:07;3.23;;;2.03;;
12135;SDS011;6131;56.420;15.548;2024-01-07T05:21:33;3.03;;;2.20;;
12135;SDS011;6131;56.420;15.548;2024-01-07T05:23:59;5.27;;;2.47;;
12135;SDS011;6131;56.420;15.548;2024-01-07T05:26:25;3.90;;;2.43;;
12135;SDS011;6131;56.420;15.548;2024-01-07T05:28:51;4.60;;;2.73;;
12135;SDS011;6131;56.420;15.548;2024-01-07T05:31:17;6.13;;;2.83;;
12135;SDS011;6131;56.420;15.548;2024-01-07T05:33:44;4.40;;;2.23;;
12135;SDS011;6131;56.420;15.548;2024-01-07T05:36:11;3.60;;;2.37;;
12135;SDS011;6131;56.420;15.548;2024-01-07T05:38:37;4.20;;;2.50;;
12135;SDS011;6131;56.420;15.548;2024-01-07T05:41:03;7.00;;;2.70;;
12135;SDS011;6131;56.420;15.548;2024-01-07T05:43:29;5.37;;;2.43;;
12135;SDS011;6131;56.420;15.548;2024-01-07T05:45:55;3.73;;;2.20;;
12135;SDS011;6131;56.420;15.548;2024-01-07T05:48:21;5.27;;;2.20;;
12135;SDS011;6131;56.420;15.548;2024-01-07T05:50:48;3.97;;;2.33;;
12135;SDS011;6131;56.420;15.548;2024-01-07T05:53:14;5.37;;;2.43;;
12135;SDS011;6131;56.420;15.548;2024-01-07T05:55:40;4.23;;;2.37;;
12135;SDS011;6131;56.420;15.548;2024-01-07T05:58:06;3.73;;;2.50;;
12135;SDS011;6131;56.420;15.548;2024-01-07T06:00:32;3.73;;;2.27;;
12135;SDS011;6131;56.420;15.548;2024-01-07T06:02:58;6.03;;;2.47;;
12135;SDS011;6131;56.420;15.548;2024-01-07T06:05:25;4.47;;;2.60;;
12135;SDS011;6131;56.420;15.548;2024-01-07T06:07:51;5.73;;;2.50;;
12135;SDS011;6131;56.420;15.548;2024-01-07T06:10:17;3.20;;;2.20;;
12135;SDS011;6131;56.420;15.548;2024-01-07T06:12:43;4.67;;;2.60;;
12135;SDS011;6131;56.420;15.548;2024-01-07T06:15:09;3.23;;;2.23;;
12135;SDS011;6131;56.420;15.548;2024-01-07T06:17:35;3.60;;;2.40;;
12135;SDS011;6131;56.420;15.548;2024-01-07T06:20:01;4.60;;;2.47;;
12135;SDS011;6131;56.420;15.548;2024-01-07T06:22:27;3.23;;;2.60;;
12135;SDS011;6131;56.420;15.548;2024-01-07T06:24:53;3.43;;;2.37;;
12135;SDS011;6131;56.420;15.548;2024-01-07T06:27:19;3.20;;;2.30;;
12135;SDS011;6131;56.420;15.548;2024-01-07T06:29:45;4.47;;;2.30;;
12135;SDS011;6131;56.420;15.548;2024-01-07T06:32:11;4.13;;;2.20;;
12135;SDS011;6131;56.420;15.548;2024-01-07T06:34:38;4.70;;;2.60;;
12135;SDS011;6131;56.420;15.548;2024-01-07T06:37:05;2.90;;;2.10;;
12135;SDS011;6131;56.420;15.548;2024-01-07T06:39:32;2.97;;;2.27;;
12135;SDS011;6131;56.420;15.548;2024-01-07T06:41:59;3.77;;;2.60;;
12135;SDS011;6131;56.420;15.548;2024-01-07T06:44:25;3.83;;;2.30;;
12135;SDS011;6131;56.420;15.548;2024-01-07T06:46:51;5.83;;;2.90;;
12135;SDS011;6131;56.420;15.548;2024-01-07T06:49:17;4.80;;;2.40;;
12135;SDS011;6131;56.420;15.548;2024-01-07T06:51:43;6.07;;;2.63;;
12135;SDS011;6131;56.420;15.548;2024-01-07T06:54:09;3.67;;;2.23;;
12135;SDS011;6131;56.420;15.548;2024-01-07T06:56:36;3.40;;;2.30;;
12135;SDS011;6131;56.420;15.548;2024-01-07T06:59:02;6.00;;;3.10;;
12135;SDS011;6131;56.420;15.548;2024-01-07T07:01:28;4.47;;;2.73;;
12135;SDS011;6131;56.420;15.548;2024-01-07T07:03:54;4.27;;;2.60;;
12135;SDS011;6131;56.420;15.548;2024-01-07T07:06:20;4.57;;;2.83;;
12135;SDS011;6131;56.420;15.548;2024-01-07T07:08:46;5.27;;;2.60;;
12135;SDS011;6131;56.420;15.548;2024-01-07T07:11:12;4.20;;;2.63;;
12135;SDS011;6131;56.420;15.548;2024-01-07T07:13:38;6.77;;;2.80;;
12135;SDS011;6131;56.420;15.548;2024-01-07T07:16:04;4.03;;;2.47;;
12135;SDS011;6131;56.420;15.548;2024-01-07T07:18:30;4.50;;;2.73;;
12135;SDS011;6131;56.420;15.548;2024-01-07T07:20:56;5.83;;;2.80;;
12135;SDS011;6131;56.420;15.548;2024-01-07T07:23:22;4.00;;;2.43;;
12135;SDS011;6131;56.420;15.548;2024-01-07T07:25:48;4.23;;;2.50;;
12135;SDS011;6131;56.420;15.548;2024-01-07T07:28:14;5.47;;;3.13;;
12135;SDS011;6131;56.420;15.548;2024-01-07T07:30:42;4.03;;;2.50;;
12135;SDS011;6131;56.420;15.548;2024-01-07T07:33:08;3.83;;;2.33;;
12135;SDS011;6131;56.420;15.548;2024-01-07T07:35:34;4.80;;;2.27;;
12135;SDS011;6131;56.420;15.548;2024-01-07T07:38:00;3.80;;;2.73;;
12135;SDS011;6131;56.420;15.548;2024-01-07T07:40:26;6.97;;;2.77;;
12135;SDS011;6131;56.420;15.548;2024-01-07T07:42:52;5.83;;;2.93;;
12135;SDS011;6131;56.420;15.548;2024-01-07T07:45:18;4.00;;;2.63;;
12135;SDS011;6131;56.420;15.548;2024-01-07T07:47:44;4.70;;;2.83;;
12135;SDS011;6131;56.420;15.548;2024-01-07T07:50:10;6.40;;;3.13;;
12135;SDS011;6131;56.420;15.548;2024-01-07T07:52:36;4.27;;;3.00;;
12135;SDS011;6131;56.420;15.548;2024-01-07T07:55:02;4.77;;;2.67;;
12135;SDS011;6131;56.420;15.548;2024-01-07T07:57:28;4.53;;;2.80;;
12135;SDS011;6131;56.420;15.548;2024-01-07T07:59:54;4.93;;;2.87;;
12135;SDS011;6131;56.420;15.548;2024-01-07T08:02:21;5.17;;;2.40;;
12135;SDS011;6131;56.420;15.548;2024-01-07T08:04:47;5.13;;;2.73;;
12135;SDS011;6131;56.420;15.548;2024-01-07T08:07:13;4.97;;;2.57;;
12135;SDS011;6131;56.420;15.548;2024-01-07T08:09:39;4.67;;;3.30;;
12135;SDS011;6131;56.420;15.548;2024-01-07T08:12:05;4.47;;;2.83;;
12135;SDS011;6131;56.420;15.548;2024-01-07T08:14:31;6.23;;;2.70;;
12135;SDS011;6131;56.420;15.548;2024-01-07T08:16:58;4.43;;;2.87;;
12135;SDS011;6131;56.420;15.548;2024-01-07T08:19:24;3.93;;;2.47;;
12135;SDS011;6131;56.420;15.548;2024-01-07T08:21:50;5.77;;;3.17;;
12135;SDS011;6131;56.420;15.548;2024-01-07T08:24:17;4.37;;;2.87;;
12135;SDS011;6131;56.420;15.548;2024-01-07T08:26:43;7.60;;;3.07;;
12135;SDS011;6131;56.420;15.548;2024-01-07T08:29:09;4.97;;;3.07;;
12135;SDS011;6131;56.420;15.548;2024-01-07T08:31:36;4.77;;;2.80;;
12135;SDS011;6131;56.420;15.548;2024-01-07T08:34:02;5.90;;;3.33;;
12135;SDS011;6131;56.420;15.548;2024-01-07T08:36:28;7.87;;;2.90;;
12135;SDS011;6131;56.420;15.548;2024-01-07T08:38:54;5.80;;;3.33;;
12135;SDS011;6131;56.420;15.548;2024-01-07T08:41:20;6.77;;;3.53;;
12135;SDS011;6131;56.420;15.548;2024-01-07T08:43:46;3.93;;;2.97;;
12135;SDS011;6131;56.420;15.548;2024-01-07T08:46:12;5.47;;;3.33;;
12135;SDS011;6131;56.420;15.548;2024-01-07T08:48:41;5.43;;;3.23;;
12135;SDS011;6131;56.420;15.548;2024-01-07T08:51:07;4.93;;;2.93;;
12135;SDS011;6131;56.420;15.548;2024-01-07T08:53:33;6.17;;;3.27;;
12135;SDS011;6131;56.420;15.548;2024-01-07T08:55:59;4.07;;;2.80;;
12135;SDS011;6131;56.420;15.548;2024-01-07T08:58:25;5.47;;;3.20;;
12135;SDS011;6131;56.420;15.548;2024-01-07T09:00:51;5.23;;;3.20;;
12135;SDS011;6131;56.420;15.548;2024-01-07T09:03:17;4.00;;;3.00;;
12135;SDS011;6131;56.420;15.548;2024-01-07T09:05:45;5.73;;;2.90;;
12135;SDS011;6131;56.420;15.548;2024-01-07T09:08:11;7.00;;;2.93;;
12135;SDS011;6131;56.420;15.548;2024-01-07T09:10:39;5.93;;;2.93;;
12135;SDS011;6131;56.420;15.548;2024-01-07T09:13:05;5.23;;;2.83;;
12135;SDS011;6131;56.420;15.548;2024-01-07T09:15:31;5.87;;;2.87;;
12135;SDS011;6131;56.420;15.548;2024-01-07T09:17:57;5.27;;;3.10;;
12135;SDS011;6131;56.420;15.548;2024-01-07T09:20:23;6.27;;;3.37;;
12135;SDS011;6131;56.420;15.548;2024-01-07T09:22:49;6.47;;;2.83;;
12135;SDS011;6131;56.420;15.548;2024-01-07T09:25:15;6.47;;;3.37;;
12135;SDS011;6131;56.420;15.548;2024-01-07T09:27:41;6.23;;;2.90;;
12135;SDS011;6131;56.420;15.548;2024-01-07T09:30:08;5.50;;;3.20;;
12135;SDS011;6131;56.420;15.548;2024-01-07T09:32:40;4.90;;;2.93;;
12135;SDS011;6131;56.420;15.548;2024-01-07T09:35:06;5.93;;;3.07;;
12135;SDS011;6131;56.420;15.548;2024-01-07T09:37:32;6.27;;;3.20;;
12135;SDS011;6131;56.420;15.548;2024-01-07T09:39:58;5.80;;;3.10;;
12135;SDS011;6131;56.420;15.548;2024-01-07T09:42:24;5.43;;;2.87;;
12135;SDS011;6131;56.420;15.548;2024-01-07T09:44:50;4.90;;;2.83;;
12135;SDS011;6131;56.420;15.548;2024-01-07T09:47:16;4.67;;;2.90;;
12135;SDS011;6131;56.420;15.548;2024-01-07T09:49:43;5.17;;;3.03;;
12135;SDS011;6131;56.420;15.548;2024-01-07T09:52:10;4.73;;;3.10;;
12135;SDS011;6131;56.420;15.548;2024-01-07T09:54:37;6.70;;;3.27;;
12135;SDS011;6131;56.420;15.548;2024-01-07T09:57:03;6.90;;;3.40;;
12135;SDS011;6131;56.420;15.548;2024-01-07T09:59:33;6.57;;;3.23;;
12135;SDS011;6131;56.420;15.548;2024-01-07T10:02:00;4.80;;;2.90;;
12135;SDS011;6131;56.420;15.548;2024-01-07T10:04:26;3.97;;;2.57;;
12135;SDS011;6131;56.420;15.548;2024-01-07T10:06:53;4.47;;;2.87;;
12135;SDS011;6131;56.420;15.548;2024-01-07T10:09:19;4.20;;;3.10;;
12135;SDS011;6131;56.420;15.548;2024-01-07T10:11:48;4.33;;;2.70;;
12135;SDS011;6131;56.420;15.548;2024-01-07T10:14:15;6.00;;;2.90;;
12135;SDS011;6131;56.420;15.548;2024-01-07T10:16:41;4.97;;;2.73;;
12135;SDS011;6131;56.420;15.548;2024-01-07T10:19:07;5.77;;;2.90;;
12135;SDS011;6131;56.420;15.548;2024-01-07T10:21:34;6.33;;;2.60;;
12135;SDS011;6131;56.420;15.548;2024-01-07T10:26:35;3.87;;;2.80;;
12135;SDS011;6131;56.420;15.548;2024-01-07T10:29:01;3.87;;;2.60;;
12135;SDS011;6131;56.420;15.548;2024-01-07T10:31:27;3.97;;;2.90;;
12135;SDS011;6131;56.420;15.548;2024-01-07T10:33:54;4.20;;;2.57;;
12135;SDS011;6131;56.420;15.548;2024-01-07T10:36:22;6.43;;;3.00;;
12135;SDS011;6131;56.420;15.548;2024-01-07T10:38:48;5.23;;;2.80;;
12135;SDS011;6131;56.420;15.548;2024-01-07T10:41:14;4.37;;;2.73;;
12135;SDS011;6131;56.420;15.548;2024-01-07T10:43:40;3.30;;;2.53;;
12135;SDS011;6131;56.420;15.548;2024-01-07T10:46:08;3.77;;;2.57;;
12135;SDS011;6131;56.420;15.548;2024-01-07T10:48:36;3.77;;;2.50;;
12135;SDS011;6131;56.420;15.548;2024-01-07T10:51:03;4.57;;;2.90;;
12135;SDS011;6131;56.420;15.548;2024-01-07T10:53:33;4.40;;;2.80;;
12135;SDS011;6131;56.420;15.548;2024-01-07T10:56:00;4.70;;;2.70;;
12135;SDS011;6131;56.420;15.548;2024-01-07T10:58:30;4.67;;;2.87;;
12135;SDS011;6131;56.420;15.548;2024-01-07T11:00:56;4.27;;;2.50;;
12135;SDS011;6131;56.420;15.548;2024-01-07T11:03:27;4.43;;;2.77;;
12135;SDS011;6131;56.420;15.548;2024-01-07T11:05:58;4.23;;;2.83;;
12135;SDS011;6131;56.420;15.548;2024-01-07T11:10:53;4.17;;;2.67;;
12135;SDS011;6131;56.420;15.548;2024-01-07T11:16:06;7.30;;;2.87;;
12135;SDS011;6131;56.420;15.548;2024-01-07T11:18:39;4.77;;;2.80;;
12135;SDS011;6131;56.420;15.548;2024-01-07T11:21:05;4.40;;;2.77;;
12135;SDS011;6131;56.420;15.548;2024-01-07T11:23:35;4.27;;;2.50;;
12135;SDS011;6131;56.420;15.548;2024-01-07T11:26:05;3.77;;;2.77;;
12135;SDS011;6131;56.420;15.548;2024-01-07T11:31:08;4.40;;;2.53;;
12135;SDS011;6131;56.420;15.548;2024-01-07T11:33:36;3.20;;;2.50;;
12135;SDS011;6131;56.420;15.548;2024-01-07T11:36:02;3.67;;;2.50;;
12135;SDS011;6131;56.420;15.548;2024-01-07T11:38:30;2.90;;;2.33;;
12135;SDS011;6131;56.420;15.548;2024-01-07T11:40:56;3.87;;;2.70;;
12135;SDS011;6131;56.420;15.548;2024-01-07T11:43:23;4.70;;;2.50;;
12135;SDS011;6131;56.420;15.548;2024-01-07T11:45:49;3.87;;;2.50;;
12135;SDS011;6131;56.420;15.548;2024-01-07T11:48:16;4.13;;;2.50;;
12135;SDS011;6131;56.420;15.548;2024-01-07T11:50:42;3.13;;;2.10;;
12135;SDS011;6131;56.420;15.548;2024-01-07T11:53:08;3.33;;;2.43;;
12135;SDS011;6131;56.420;15.548;2024-01-07T11:55:37;4.03;;;2.50;;
12135;SDS011;6131;56.420;15.548;2024-01-07T11:58:03;4.20;;;2.43;;
12135;SDS011;6131;56.420;15.548;2024-01-07T12:00:35;2.27;;;1.80;;
12135;SDS011;6131;56.420;15.548;2024-01-07T12:03:01;3.70;;;2.40;;
12135;SDS011;6131;56.420;15.548;2024-01-07T12:05:28;2.87;;;2.07;;
12135;SDS011;6131;56.420;15.548;2024-01-07T12:07:54;3.40;;;2.10;;
12135;SDS011;6131;56.420;15.548;2024-01-07T12:10:20;4.47;;;2.30;;
12135;SDS011;6131;56.420;15.548;2024-01-07T12:12:47;3.27;;;2.30;;
12135;SDS011;6131;56.420;15.548;2024-01-07T12:15:13;4.50;;;2.30;;
12135;SDS011;6131;56.420;15.548;2024-01-07T12:17:39;3.10;;;2.13;;
12135;SDS011;6131;56.420;15.548;2024-01-07T12:20:06;3.07;;;2.00;;
12135;SDS011;6131;56.420;15.548;2024-01-07T12:22:33;4.00;;;2.40;;
12135;SDS011;6131;56.420;15.548;2024-01-07T12:24:59;2.77;;;1.70;;
12135;SDS011;6131;56.420;15.548;2024-01-07T12:27:26;3.63;;;2.13;;
12135;SDS011;6131;56.420;15.548;2024-01-07T12:29:58;3.30;;;1.90;;
12135;SDS011;6131;56.420;15.548;2024-01-07T12:32:30;2.37;;;1.87;;
12135;SDS011;6131;56.420;15.548;2024-01-07T12:34:57;3.33;;;2.17;;
12135;SDS011;6131;56.420;15.548;2024-01-07T12:37:25;5.50;;;2.07;;
12135;SDS011;6131;56.420;15.548;2024-01-07T12:39:52;3.53;;;2.00;;
12135;SDS011;6131;56.420;15.548;2024-01-07T12:42:18;2.80;;;1.90;;
12135;SDS011;6131;56.420;15.548;2024-01-07T12:44:47;3.73;;;1.90;;
12135;SDS011;6131;56.420;15.548;2024-01-07T12:47:13;3.43;;;1.50;;
12135;SDS011;6131;56.420;15.548;2024-01-07T12:49:39;3.27;;;1.73;;
12135;SDS011;6131;56.420;15.548;2024-01-07T12:52:05;4.47;;;2.17;;
12135;SDS011;6131;56.420;15.548;2024-01-07T12:54:31;2.60;;;1.83;;
12135;SDS011;6131;56.420;15.548;2024-01-07T12:56:57;2.80;;;2.00;;
12135;SDS011;6131;56.420;15.548;2024-01-07T12:59:23;3.47;;;1.73;;
12135;SDS011;6131;56.420;15.548;2024-01-07T13:01:49;2.87;;;1.93;;
12135;SDS011;6131;56.420;15.548;2024-01-07T13:04:16;3.03;;;1.97;;
12135;SDS011;6131;56.420;15.548;2024-01-07T13:06:42;2.37;;;1.77;;
12135;SDS011;6131;56.420;15.548;2024-01-07T13:09:08;3.00;;;1.87;;
12135;SDS011;6131;56.420;15.548;2024-01-07T13:11:34;2.60;;;1.70;;
12135;SDS011;6131;56.420;15.548;2024-01-07T13:14:00;4.37;;;2.10;;
12135;SDS011;6131;56.420;15.548;2024-01-07T13:16:27;2.63;;;1.73;;
12135;SDS011;6131;56.420;15.548;2024-01-07T13:18:53;3.17;;;1.70;;
12135;SDS011;6131;56.420;15.548;2024-01-07T13:21:19;2.50;;;1.70;;
12135;SDS011;6131;56.420;15.548;2024-01-07T13:23:46;3.20;;;2.00;;
12135;SDS011;6131;56.420;15.548;2024-01-07T13:26:13;2.27;;;1.67;;
12135;SDS011;6131;56.420;15.548;2024-01-07T13:28:39;2.80;;;1.60;;
12135;SDS011;6131;56.420;15.548;2024-01-07T13:31:05;3.13;;;2.07;;
12135;SDS011;6131;56.420;15.548;2024-01-07T13:33:37;3.03;;;1.53;;
12135;SDS011;6131;56.420;15.548;2024-01-07T13:36:03;3.00;;;1.70;;
12135;SDS011;6131;56.420;15.548;2024-01-07T13:38:34;2.10;;;1.40;;
12135;SDS011;6131;56.420;15.548;2024-01-07T13:41:00;1.83;;;1.60;;
12135;SDS011;6131;56.420;15.548;2024-01-07T13:43:26;3.93;;;1.90;;
12135;SDS011;6131;56.420;15.548;2024-01-07T13:45:54;3.17;;;1.53;;
12135;SDS011;6131;56.420;15.548;2024-01-07T13:48:20;2.00;;;1.50;;
12135;SDS011;6131;56.420;15.548;2024-01-07T13:50:46;2.80;;;1.43;;
12135;SDS011;6131;56.420;15.548;2024-01-07T13:53:14;3.03;;;1.30;;
12135;SDS011;6131;56.420;15.548;2024-01-07T13:55:40;2.27;;;1.50;;
12135;SDS011;6131;56.420;15.548;2024-01-07T13:58:06;2.90;;;1.70;;
12135;SDS011;6131;56.420;15.548;2024-01-07T14:00:32;4.07;;;1.90;;
12135;SDS011;6131;56.420;15.548;2024-01-07T14:02:58;5.20;;;1.40;;
12135;SDS011;6131;56.420;15.548;2024-01-07T14:05:24;2.60;;;1.63;;
12135;SDS011;6131;56.420;15.548;2024-01-07T14:07:50;3.10;;;1.70;;
12135;SDS011;6131;56.420;15.548;2024-01-07T14:10:16;1.90;;;1.37;;
12135;SDS011;6131;56.420;15.548;2024-01-07T14:12:44;2.13;;;1.37;;
12135;SDS011;6131;56.420;15.548;2024-01-07T14:15:10;3.03;;;1.30;;
12135;SDS011;6131;56.420;15.548;2024-01-07T14:17:36;2.67;;;1.10;;
12135;SDS011;6131;56.420;15.548;2024-01-07T14:20:02;1.57;;;1.07;;
12135;SDS011;6131;56.420;15.548;2024-01-07T14:22:28;2.13;;;1.10;;
12135;SDS011;6131;56.420;15.548;2024-01-07T14:24:54;1.73;;;1.10;;
12135;SDS011;6131;56.420;15.548;2024-01-07T14:27:20;1.77;;;1.00;;
12135;SDS011;6131;56.420;15.548;2024-01-07T14:29:46;2.10;;;1.03;;
12135;SDS011;6131;56.420;15.548;2024-01-07T14:32:13;2.03;;;0.90;;
12135;SDS011;6131;56.420;15.548;2024-01-07T14:34:39;3.77;;;1.10;;
12135;SDS011;6131;56.420;15.548;2024-01-07T14:37:11;1.77;;;1.00;;
12135;SDS011;6131;56.420;15.548;2024-01-07T14:39:38;1.50;;;0.93;;
12135;SDS011;6131;56.420;15.548;2024-01-07T14:42:04;2.97;;;0.97;;
12135;SDS011;6131;56.420;15.548;2024-01-07T14:44:30;2.37;;;1.30;;
12135;SDS011;6131;56.420;15.548;2024-01-07T14:46:56;1.20;;;0.80;;
12135;SDS011;6131;56.420;15.548;2024-01-07T14:49:22;1.70;;;1.10;;
12135;SDS011;6131;56.420;15.548;2024-01-07T14:51:48;2.43;;;1.10;;
12135;SDS011;6131;56.420;15.548;2024-01-07T14:54:14;1.77;;;1.00;;
12135;SDS011;6131;56.420;15.548;2024-01-07T14:56:40;1.47;;;1.00;;